Horse Shoe, North Carolina
Current Conditions -  °F | °C
As of 10:04 PM on Sunday 23 Nov 2014 (Local Time) from KAVL Reporting Station
Overcast Overcast  
Wind Chill: 51°   Ceiling: 500
Heat Index: 51°   Visibility: 10mi
Dew Point: 49°   Wind: 5mph
Humidity: 92%   Direction: 160°SSE
Pressure: 29.72"   Gusts: NA
Location:  35.38°N, 82.56°W
Report Text: KAVL 240304Z 16004KT 10SM BKN005 OVC012 11/09 A2972 RMK AO2 T01060094
Loading
Personal Weather Stations






























Interactive Weather Map New forecast layout! Learn more

10-Day Weather Forecast

Advertisements
Track Severe Weather on mobile